KFLG

Flagstaff Pulliam Airport

Flagstaff, Arizona, USA
METAR KFLG 212257Z 23009KT 10SM CLR 23/12 A3033 RMK AO2 SLP164 T02330117
Observed Flight Rules
Aug-21 @ 22:57 UTC (50 minutes ago) Visual Flight Rules
Wind Visibility Clouds
230° at 9 knots 10 miles
  • Clear skies
Temperatures Readings
Current 23°C / 73°F
Dewpoint 12°C / 54°F
Humidity 50%
Altimeter 30.33" Hg
Pressure 1016.4 hPa
Elevation 2134
METAR KFLG 212257Z 23009KT 10SM CLR 23/12 A3033 RMK AO2 SLP164 T02330117
Observed Flight Rules
Aug-21 @ 22:57 UTC
(50 minutes ago)
VFR
Wind Visibility
230° at 9 knots 10 miles
Clouds
  • Clear skies
Temperature Dewpoint
23°C / 73°F 12°C / 54°F
Humidity Altimeter Pressure
50% 30.33" Hg 1016.4 hPa